createdAt,value
2022-10-17T00:01:27.017Z,6.53
2022-10-17T00:03:54.043Z,6.55
2022-10-17T00:06:21.187Z,6.60
2022-10-17T00:08:48.137Z,6.62
2022-10-17T00:11:23.173Z,6.60
2022-10-17T00:13:51.134Z,6.57
2022-10-17T00:16:26.209Z,6.51
2022-10-17T00:18:53.523Z,6.46
2022-10-17T00:21:21.103Z,6.41
2022-10-17T00:23:48.134Z,6.36
2022-10-17T00:26:16.407Z,6.37
2022-10-17T00:28:46.010Z,6.41
2022-10-17T00:31:13.060Z,6.43
2022-10-17T00:33:40.142Z,6.39
2022-10-17T00:36:16.487Z,6.33
2022-10-17T00:38:44.544Z,6.28
2022-10-17T00:41:13.022Z,6.22
2022-10-17T00:43:50.209Z,6.18
2022-10-17T00:46:17.561Z,6.21
2022-10-17T00:48:44.610Z,6.26
2022-10-17T00:51:11.575Z,6.26
2022-10-17T00:53:39.640Z,6.24
2022-10-17T00:56:06.878Z,6.19
2022-10-17T00:58:33.933Z,6.14
2022-10-17T01:01:02.010Z,6.10
2022-10-17T01:03:29.043Z,6.06
2022-10-17T01:05:56.092Z,6.01
2022-10-17T01:08:23.341Z,6.03
2022-10-17T01:11:22.546Z,6.07
2022-10-17T01:13:57.473Z,6.08
2022-10-17T01:16:53.704Z,6.05
2022-10-17T01:19:52.088Z,6.00
2022-10-17T01:22:41.060Z,5.94
2022-10-17T01:25:26.016Z,5.89
2022-10-17T01:28:31.497Z,5.84
2022-10-17T01:31:11.320Z,5.88
2022-10-17T01:33:44.608Z,5.91
2022-10-17T01:36:13.437Z,5.90
2022-10-17T01:38:51.100Z,5.86
2022-10-17T01:41:40.285Z,5.81
2022-10-17T01:44:21.539Z,5.74
2022-10-17T01:49:27.751Z,5.62
2022-10-17T01:52:10.442Z,5.64
2022-10-17T01:54:43.110Z,5.69
2022-10-17T01:57:20.610Z,5.70
2022-10-17T01:59:48.156Z,5.69
2022-10-17T02:02:16.847Z,5.65
2022-10-17T02:04:43.891Z,5.60
2022-10-17T02:07:12.169Z,5.55
2022-10-17T02:09:39.422Z,5.52
2022-10-17T02:12:24.895Z,5.54
2022-10-17T02:15:25.018Z,5.61
2022-10-17T02:18:15.211Z,5.62
2022-10-17T02:21:00.913Z,5.59
2022-10-17T02:23:58.148Z,5.55
2022-10-17T02:26:35.432Z,5.50
2022-10-17T02:29:38.117Z,5.45
2022-10-17T02:32:10.219Z,5.40
2022-10-17T02:34:43.181Z,5.45
2022-10-17T02:37:11.095Z,5.50
2022-10-17T02:39:38.287Z,5.52
2022-10-17T02:42:06.868Z,5.51
2022-10-17T02:44:33.915Z,5.48
2022-10-17T02:47:30.457Z,5.44
2022-10-17T02:49:58.731Z,5.38
2022-10-17T02:52:30.888Z,5.33
2022-10-17T02:55:01.661Z,5.26
2022-10-17T02:57:44.960Z,5.27
2022-10-17T03:00:14.472Z,5.33
2022-10-17T03:02:43.428Z,5.34
2022-10-17T03:05:11.708Z,5.33
2022-10-17T03:07:38.816Z,5.29
2022-10-17T03:10:06.441Z,5.26
2022-10-17T03:12:33.625Z,5.22
2022-10-17T03:15:00.636Z,5.20
2022-10-17T03:17:29.134Z,5.22
2022-10-17T03:19:56.164Z,5.27
2022-10-17T03:22:23.449Z,5.30
2022-10-17T03:24:50.673Z,5.29
2022-10-17T03:27:17.836Z,5.25
2022-10-17T03:29:45.137Z,5.21
2022-10-17T03:32:13.658Z,5.17
2022-10-17T03:34:41.217Z,5.12
2022-10-17T03:37:08.669Z,5.07
2022-10-17T03:39:36.063Z,5.10
2022-10-17T03:42:03.481Z,5.16
2022-10-17T03:44:30.849Z,5.18
2022-10-17T03:46:58.907Z,5.16
2022-10-17T03:49:26.164Z,5.14
2022-10-17T03:51:53.618Z,5.12
2022-10-17T03:54:20.592Z,5.07
2022-10-17T03:56:47.693Z,5.02
2022-10-17T03:59:17.420Z,4.96
2022-10-17T04:01:49.829Z,4.98
2022-10-17T04:04:17.376Z,5.04
2022-10-17T04:06:45.014Z,5.06
2022-10-17T04:09:12.173Z,5.05
2022-10-17T04:11:47.916Z,5.02
2022-10-17T04:14:15.265Z,4.98
2022-10-17T04:16:42.522Z,4.94
2022-10-17T04:19:35.434Z,4.90
2022-10-17T04:22:04.385Z,4.93
2022-10-17T04:24:55.057Z,5.00
2022-10-17T04:27:45.724Z,5.02
2022-10-17T04:30:14.378Z,5.00
2022-10-17T04:32:41.537Z,4.98
2022-10-17T04:35:19.735Z,4.93
2022-10-17T04:37:50.892Z,4.89
2022-10-17T04:40:18.640Z,4.84
2022-10-17T04:42:46.007Z,4.80
2022-10-17T04:45:15.191Z,4.84
2022-10-17T04:47:42.444Z,4.90
2022-10-17T04:50:10.415Z,4.92
2022-10-17T04:52:37.770Z,4.91
2022-10-17T04:57:43.133Z,4.87
2022-10-17T05:00:16.942Z,4.81
2022-10-17T05:02:54.217Z,4.78
2022-10-17T05:05:21.471Z,4.81
2022-10-17T05:07:51.282Z,4.88
2022-10-17T05:10:20.396Z,4.92
2022-10-17T05:12:49.387Z,4.92
2022-10-17T05:15:17.952Z,4.93
2022-10-17T05:17:45.093Z,4.91
2022-10-17T05:20:12.966Z,4.90
2022-10-17T05:22:42.122Z,4.89
2022-10-17T05:25:10.235Z,4.94
2022-10-17T05:27:38.383Z,5.03
2022-10-17T05:30:06.414Z,5.09
2022-10-17T05:32:34.450Z,5.12
2022-10-17T05:35:02.149Z,5.14
2022-10-17T05:37:30.490Z,5.16
2022-10-17T05:39:58.167Z,5.17
2022-10-17T05:42:25.987Z,5.20
2022-10-17T05:44:53.267Z,5.28
2022-10-17T05:47:20.828Z,5.39
2022-10-17T05:49:51.456Z,5.47
2022-10-17T05:52:22.299Z,5.51
2022-10-17T05:55:03.679Z,5.56
2022-10-17T05:57:31.953Z,5.61
2022-10-17T06:00:01.152Z,5.66
2022-10-17T06:02:41.814Z,5.74
2022-10-17T06:05:10.612Z,5.91
2022-10-17T06:07:37.961Z,6.06
2022-10-17T06:10:06.806Z,6.19
2022-10-17T06:12:34.312Z,6.31
2022-10-17T06:15:01.572Z,6.45
2022-10-17T06:17:29.523Z,6.61
2022-10-17T06:19:57.600Z,6.80
2022-10-17T06:22:24.949Z,7.02
2022-10-17T06:24:54.048Z,7.31
2022-10-17T06:27:21.234Z,7.67
2022-10-17T06:29:48.549Z,8.00
2022-10-17T06:32:15.518Z,8.31
2022-10-17T06:34:46.108Z,8.62
2022-10-17T06:37:13.274Z,8.90
2022-10-17T06:39:41.686Z,9.16
2022-10-17T06:42:14.098Z,9.44
2022-10-17T06:45:03.250Z,9.84
2022-10-17T06:47:41.807Z,10.22
2022-10-17T06:50:32.018Z,10.56
2022-10-17T06:53:10.111Z,10.85
2022-10-17T06:55:54.170Z,11.14
2022-10-17T06:58:41.883Z,11.46
2022-10-17T07:01:22.970Z,11.76
2022-10-17T07:03:54.312Z,11.98
2022-10-17T07:06:23.613Z,12.16
2022-10-17T07:08:51.683Z,12.35
2022-10-17T07:11:20.879Z,12.54
2022-10-17T07:13:50.283Z,12.73
2022-10-17T07:16:17.636Z,12.95
2022-10-17T07:18:49.912Z,13.19
2022-10-17T07:21:17.971Z,13.42
2022-10-17T07:23:45.025Z,13.64
2022-10-17T07:26:13.632Z,13.83
2022-10-17T07:28:43.442Z,13.98
2022-10-17T07:31:49.108Z,14.20
2022-10-17T07:37:25.605Z,14.73
2022-10-17T07:39:57.037Z,14.92
2022-10-17T07:42:28.055Z,15.10
2022-10-17T07:44:55.660Z,15.29
2022-10-17T07:47:23.577Z,15.47
2022-10-17T07:49:50.830Z,15.68
2022-10-17T07:52:28.177Z,15.88
2022-10-17T07:54:55.525Z,16.10
2022-10-17T07:57:22.669Z,16.33
2022-10-17T07:59:51.505Z,16.52
2022-10-17T08:02:22.863Z,16.71
2022-10-17T08:04:50.251Z,16.94
2022-10-17T08:07:24.104Z,17.15
2022-10-17T08:09:52.426Z,17.41
2022-10-17T08:12:19.397Z,17.68
2022-10-17T08:14:46.745Z,17.98
2022-10-17T08:17:13.778Z,18.25
2022-10-17T08:19:40.864Z,18.54
2022-10-17T08:22:07.874Z,18.82
2022-10-17T08:24:34.866Z,19.09
2022-10-17T08:27:04.671Z,19.37
2022-10-17T08:29:35.399Z,19.67
2022-10-17T08:32:13.210Z,19.94
2022-10-17T08:34:40.136Z,20.22
2022-10-17T08:37:07.174Z,20.45
2022-10-17T08:39:34.099Z,20.65
2022-10-17T08:42:19.760Z,20.82
2022-10-17T08:45:19.284Z,20.99
2022-10-17T08:47:47.805Z,21.18
2022-10-17T08:50:29.138Z,21.38
2022-10-17T08:53:02.984Z,21.60
2022-10-17T08:55:45.408Z,21.82
2022-10-17T08:58:19.558Z,21.96
2022-10-17T09:00:54.467Z,22.18
2022-10-17T09:04:03.402Z,22.42
2022-10-17T09:06:35.521Z,22.68
2022-10-17T09:09:11.521Z,22.90
2022-10-17T09:12:05.803Z,23.07
2022-10-17T09:14:53.346Z,23.23
2022-10-17T09:17:37.739Z,23.35
2022-10-17T09:20:20.917Z,23.52
2022-10-17T09:22:58.947Z,23.72
2022-10-17T09:25:36.928Z,23.93
2022-10-17T09:28:09.970Z,24.02
2022-10-17T09:30:47.883Z,24.14
2022-10-17T09:33:35.595Z,24.32
2022-10-17T09:36:27.761Z,24.52
2022-10-17T09:39:02.145Z,24.64
2022-10-17T09:41:49.598Z,24.77
2022-10-17T09:44:37.902Z,25.00
2022-10-17T09:47:19.882Z,25.22
2022-10-17T09:49:50.363Z,25.42
2022-10-17T09:52:19.066Z,25.50
2022-10-17T09:54:57.326Z,25.54
2022-10-17T09:57:56.054Z,25.62
2022-10-17T10:00:27.036Z,25.75
2022-10-17T10:03:09.210Z,25.87
2022-10-17T10:05:38.612Z,25.96
2022-10-17T10:08:15.894Z,25.97
2022-10-17T10:10:45.962Z,25.97
2022-10-17T10:13:12.967Z,25.99
2022-10-17T10:15:41.475Z,26.06
2022-10-17T10:18:26.689Z,26.18
2022-10-17T10:21:03.001Z,26.31
2022-10-17T10:23:29.877Z,26.34
2022-10-17T10:25:57.562Z,26.38
2022-10-17T10:28:28.631Z,26.43
2022-10-17T10:30:55.747Z,26.45
2022-10-17T10:33:23.097Z,26.46
2022-10-17T10:35:57.169Z,26.50
2022-10-17T10:38:24.024Z,26.52
2022-10-17T10:40:57.927Z,26.56
2022-10-17T10:43:35.884Z,26.55
2022-10-17T10:46:03.348Z,26.55
2022-10-17T10:48:32.372Z,26.56
2022-10-17T10:51:10.017Z,26.63
2022-10-17T10:53:55.851Z,26.74
2022-10-17T10:56:30.210Z,26.85
2022-10-17T10:58:58.820Z,26.91
2022-10-17T11:01:35.766Z,26.88
2022-10-17T11:04:05.132Z,26.83
2022-10-17T11:06:33.895Z,26.79
2022-10-17T11:09:19.638Z,26.78
2022-10-17T11:12:14.888Z,26.83
2022-10-17T11:14:56.496Z,26.86
2022-10-17T11:17:42.326Z,26.88
2022-10-17T11:20:09.087Z,26.89
2022-10-17T11:22:48.766Z,26.95
2022-10-17T11:25:21.236Z,27.03
2022-10-17T11:27:48.288Z,27.08
2022-10-17T11:30:15.275Z,27.10
2022-10-17T11:32:46.376Z,27.09
2022-10-17T11:35:19.293Z,27.05
2022-10-17T11:37:51.327Z,27.03
2022-10-17T11:40:20.608Z,26.99
2022-10-17T11:42:55.298Z,26.99
2022-10-17T11:45:22.451Z,27.02
2022-10-17T11:47:56.237Z,27.04
2022-10-17T11:53:14.840Z,26.96
2022-10-17T11:55:41.904Z,26.89
2022-10-17T11:58:11.804Z,26.82
2022-10-17T12:00:40.845Z,26.74
2022-10-17T12:03:27.668Z,26.68
2022-10-17T12:05:56.861Z,26.63
2022-10-17T12:08:25.192Z,26.56
2022-10-17T12:10:58.209Z,26.49
2022-10-17T12:13:28.244Z,26.44
2022-10-17T12:15:55.344Z,26.39
2022-10-17T12:18:23.720Z,26.31
2022-10-17T12:20:57.610Z,26.24
2022-10-17T12:23:28.667Z,26.13
2022-10-17T12:26:01.139Z,26.00
2022-10-17T12:28:41.073Z,25.87
2022-10-17T12:34:25.274Z,25.61
2022-10-17T12:36:52.146Z,25.44
2022-10-17T12:39:39.102Z,25.28
2022-10-17T12:42:32.496Z,25.09
2022-10-17T12:48:09.584Z,24.88
2022-10-17T12:51:12.163Z,24.80
2022-10-17T12:53:47.246Z,24.68
2022-10-17T12:56:15.111Z,24.51
2022-10-17T12:58:43.080Z,24.35
2022-10-17T13:01:29.530Z,24.18
2022-10-17T13:03:57.349Z,24.01
2022-10-17T13:06:24.906Z,23.85
2022-10-17T13:09:03.952Z,23.70
2022-10-17T13:11:33.748Z,23.54
2022-10-17T13:14:02.185Z,23.37
2022-10-17T13:16:32.141Z,23.25
2022-10-17T13:18:59.598Z,23.12
2022-10-17T13:21:29.001Z,23.00
2022-10-17T13:23:57.586Z,22.88
2022-10-17T13:26:25.759Z,22.76
2022-10-17T13:29:06.973Z,22.66
2022-10-17T13:31:38.900Z,22.54
2022-10-17T13:34:17.558Z,22.41
2022-10-17T13:36:50.400Z,22.27
2022-10-17T13:39:23.110Z,22.13
2022-10-17T13:41:59.259Z,22.00
2022-10-17T13:44:26.807Z,21.88
2022-10-17T13:46:53.618Z,21.76
2022-10-17T13:49:33.629Z,21.64
2022-10-17T13:52:01.164Z,21.51
2022-10-17T13:54:31.588Z,21.39
2022-10-17T13:56:58.644Z,21.26
2022-10-17T13:59:27.927Z,21.13
2022-10-17T14:01:55.486Z,20.98
2022-10-17T14:04:22.533Z,20.86
2022-10-17T14:06:52.295Z,20.74
2022-10-17T14:09:21.152Z,20.61
2022-10-17T14:11:56.376Z,20.49
2022-10-17T14:14:25.780Z,20.37
2022-10-17T14:16:52.841Z,20.24
2022-10-17T14:19:26.652Z,20.11
2022-10-17T14:22:13.515Z,20.02
2022-10-17T14:24:43.057Z,19.92
2022-10-17T14:27:26.838Z,19.84
2022-10-17T14:29:54.657Z,19.75
2022-10-17T14:32:21.836Z,19.66
2022-10-17T14:34:51.840Z,19.58
2022-10-17T14:37:24.601Z,19.49
2022-10-17T14:39:52.372Z,19.38
2022-10-17T14:42:20.232Z,19.28
2022-10-17T14:44:50.963Z,19.20
2022-10-17T14:47:42.287Z,19.11
2022-10-17T14:50:07.323Z,19.02
2022-10-17T14:52:35.223Z,18.95
2022-10-17T14:55:13.763Z,18.87
2022-10-17T14:57:42.450Z,18.78
2022-10-17T15:00:13.118Z,18.68
2022-10-17T15:02:40.127Z,18.56
2022-10-17T15:05:10.766Z,18.43
2022-10-17T15:07:41.182Z,18.29
2022-10-17T15:10:26.784Z,18.18
2022-10-17T15:12:59.233Z,18.08
2022-10-17T15:15:32.637Z,17.98
2022-10-17T15:18:03.375Z,17.87
2022-10-17T15:20:30.834Z,17.74
2022-10-17T15:22:58.693Z,17.58
2022-10-17T15:25:26.045Z,17.42
2022-10-17T15:27:53.015Z,17.28
2022-10-17T15:30:23.109Z,17.13
2022-10-17T15:32:50.527Z,17.01
2022-10-17T15:35:18.022Z,16.88
2022-10-17T15:37:46.402Z,16.78
2022-10-17T15:40:18.094Z,16.68
2022-10-17T15:42:45.152Z,16.58
2022-10-17T15:45:15.859Z,16.49
2022-10-17T15:47:49.248Z,16.39
2022-10-17T15:50:16.304Z,16.28
2022-10-17T15:52:43.941Z,16.20
2022-10-17T15:55:10.886Z,16.13
2022-10-17T15:57:38.859Z,16.04
2022-10-17T16:00:07.131Z,15.93
2022-10-17T16:02:36.639Z,15.81
2022-10-17T16:05:08.802Z,15.72
2022-10-17T16:07:36.488Z,15.61
2022-10-17T16:10:04.128Z,15.51
2022-10-17T16:12:36.308Z,15.42
2022-10-17T16:15:05.497Z,15.32
2022-10-17T16:17:32.939Z,15.23
2022-10-17T16:20:03.578Z,15.15
2022-10-17T16:22:31.923Z,15.07
2022-10-17T16:25:07.303Z,15.00
2022-10-17T16:27:34.757Z,14.88
2022-10-17T16:30:04.570Z,14.79
2022-10-17T16:32:31.877Z,14.69
2022-10-17T16:34:59.687Z,14.58
2022-10-17T16:37:27.755Z,14.47
2022-10-17T16:39:55.112Z,14.35
2022-10-17T16:42:22.568Z,14.24
2022-10-17T16:44:50.126Z,14.13
2022-10-17T16:47:17.412Z,14.02
2022-10-17T16:49:45.513Z,13.91
2022-10-17T16:52:12.603Z,13.80
2022-10-17T16:54:39.857Z,13.71
2022-10-17T16:57:06.897Z,13.62
2022-10-17T16:59:33.748Z,13.51
2022-10-17T17:02:00.888Z,13.42
2022-10-17T17:04:27.941Z,13.32
2022-10-17T17:06:56.702Z,13.23
2022-10-17T17:09:25.517Z,13.15
2022-10-17T17:11:52.870Z,13.06
2022-10-17T17:15:12.586Z,12.98
2022-10-17T17:17:55.731Z,12.89
2022-10-17T17:20:23.360Z,12.83
2022-10-17T17:22:51.105Z,12.84
2022-10-17T17:25:18.265Z,12.86
2022-10-17T17:27:45.601Z,12.86
2022-10-17T17:30:12.969Z,12.83
2022-10-17T17:32:39.978Z,12.80
2022-10-17T17:35:07.358Z,12.76
2022-10-17T17:37:34.411Z,12.73
2022-10-17T17:40:01.430Z,12.68
2022-10-17T17:42:28.708Z,12.62
2022-10-17T17:44:55.714Z,12.56
2022-10-17T17:47:22.798Z,12.49
2022-10-17T17:49:50.049Z,12.43
2022-10-17T17:52:17.096Z,12.43
2022-10-17T17:54:44.661Z,12.48
2022-10-17T17:57:12.882Z,12.49
2022-10-17T17:59:41.319Z,12.48
2022-10-17T18:02:09.279Z,12.44
2022-10-17T18:04:36.553Z,12.40
2022-10-17T18:07:03.619Z,12.35
2022-10-17T18:09:31.923Z,12.30
2022-10-17T18:11:59.614Z,12.26
2022-10-17T18:14:26.599Z,12.25
2022-10-17T18:16:53.764Z,12.30
2022-10-17T18:19:22.395Z,12.37
2022-10-17T18:21:49.503Z,12.39
2022-10-17T18:24:16.527Z,12.37
2022-10-17T18:26:43.545Z,12.34
2022-10-17T18:29:12.955Z,12.29
2022-10-17T18:31:45.356Z,12.23
2022-10-17T18:34:12.370Z,12.16
2022-10-17T18:36:39.314Z,12.10
2022-10-17T18:39:06.383Z,12.04
2022-10-17T18:41:33.733Z,12.05
2022-10-17T18:44:00.962Z,12.08
2022-10-17T18:46:29.671Z,12.06
2022-10-17T18:48:56.644Z,12.02
2022-10-17T18:51:24.684Z,11.96
2022-10-17T18:53:55.924Z,11.90
2022-10-17T18:56:23.320Z,11.83
2022-10-17T18:58:50.384Z,11.74
2022-10-17T19:01:25.131Z,11.68
2022-10-17T19:03:57.900Z,11.67
2022-10-17T19:06:27.113Z,11.69
2022-10-17T19:08:54.165Z,11.68
2022-10-17T19:11:25.729Z,11.65
2022-10-17T19:13:52.922Z,11.58
2022-10-17T19:16:25.008Z,11.52
2022-10-17T19:18:53.406Z,11.45
2022-10-17T19:21:21.972Z,11.39
2022-10-17T19:23:59.730Z,11.31
2022-10-17T19:26:28.055Z,11.24
2022-10-17T19:28:55.229Z,11.24
2022-10-17T19:31:26.823Z,11.27
2022-10-17T19:33:54.458Z,11.27
2022-10-17T19:36:22.078Z,11.24
2022-10-17T19:38:49.062Z,11.20
2022-10-17T19:41:16.458Z,11.15
2022-10-17T19:43:43.738Z,11.09
2022-10-17T19:46:15.667Z,11.01
2022-10-17T19:48:42.929Z,10.95
2022-10-17T19:51:15.037Z,10.95
2022-10-17T19:53:42.633Z,10.99
2022-10-17T19:56:09.750Z,10.99
2022-10-17T19:58:45.353Z,10.95
2022-10-17T20:01:20.476Z,10.91
2022-10-17T20:03:49.431Z,10.86
2022-10-17T20:06:16.787Z,10.79
2022-10-17T20:08:44.232Z,10.74
2022-10-17T20:11:12.997Z,10.68
2022-10-17T20:13:40.128Z,10.69
2022-10-17T20:16:07.908Z,10.73
2022-10-17T20:18:35.111Z,10.73
2022-10-17T20:21:06.580Z,10.70
2022-10-17T20:23:36.812Z,10.66
2022-10-17T20:29:08.914Z,10.52
2022-10-17T20:31:36.334Z,10.46
2022-10-17T20:34:03.672Z,10.40
2022-10-17T20:36:30.768Z,10.42
2022-10-17T20:38:58.646Z,10.47
2022-10-17T20:41:26.060Z,10.48
2022-10-17T20:43:54.197Z,10.47
2022-10-17T20:46:35.498Z,10.44
2022-10-17T20:49:03.317Z,10.39
2022-10-17T20:51:30.422Z,10.35
2022-10-17T20:56:29.968Z,10.31
2022-10-17T20:58:58.600Z,10.34
2022-10-17T21:01:26.015Z,10.34
2022-10-17T21:03:53.342Z,10.31
2022-10-17T21:06:20.421Z,10.27
2022-10-17T21:08:47.820Z,10.22
2022-10-17T21:11:23.555Z,10.16
2022-10-17T21:13:55.848Z,10.09
2022-10-17T21:16:23.043Z,10.02
2022-10-17T21:18:49.960Z,10.01
2022-10-17T21:21:28.054Z,10.05
2022-10-17T21:24:00.478Z,10.04
2022-10-17T21:26:27.502Z,10.01
2022-10-17T21:28:54.704Z,9.98
2022-10-17T21:31:23.383Z,9.94
2022-10-17T21:33:57.938Z,9.89
2022-10-17T21:36:25.835Z,9.84
2022-10-17T21:38:54.203Z,9.85
2022-10-17T21:41:24.665Z,9.89
2022-10-17T21:43:58.131Z,9.90
2022-10-17T21:46:25.303Z,9.85
2022-10-17T21:48:52.757Z,9.80
2022-10-17T21:51:21.705Z,9.75
2022-10-17T21:53:49.126Z,9.69
2022-10-17T21:56:17.997Z,9.62
2022-10-17T21:58:45.155Z,9.57
2022-10-17T22:01:17.295Z,9.58
2022-10-17T22:03:46.967Z,9.62
2022-10-17T22:09:02.840Z,9.56
2022-10-17T22:11:31.108Z,9.52
2022-10-17T22:14:05.867Z,9.47
2022-10-17T22:16:33.217Z,9.42
2022-10-17T22:19:04.807Z,9.38
2022-10-17T22:21:33.533Z,9.39
2022-10-17T22:24:01.807Z,9.43
2022-10-17T22:26:29.743Z,9.44
2022-10-17T22:28:56.858Z,9.41
2022-10-17T22:31:23.928Z,9.37
2022-10-17T22:33:50.963Z,9.30
2022-10-17T22:36:18.009Z,9.24
2022-10-17T22:38:44.987Z,9.18
2022-10-17T22:41:11.873Z,9.13
2022-10-17T22:43:38.749Z,9.14
2022-10-17T22:46:06.315Z,9.17
2022-10-17T22:48:33.228Z,9.17
2022-10-17T22:51:00.465Z,9.14
2022-10-17T22:53:27.414Z,9.10
2022-10-17T22:55:55.648Z,9.05
2022-10-17T22:58:22.832Z,9.00
2022-10-17T23:00:50.288Z,8.93
2022-10-17T23:03:17.434Z,8.88
2022-10-17T23:05:48.963Z,8.89
2022-10-17T23:08:16.202Z,8.94
2022-10-17T23:10:43.108Z,8.95
2022-10-17T23:13:10.075Z,8.93
2022-10-17T23:15:37.014Z,8.90
2022-10-17T23:18:04.297Z,8.85
2022-10-17T23:20:31.347Z,8.80
2022-10-17T23:22:58.372Z,8.77
2022-10-17T23:25:25.521Z,8.79
2022-10-17T23:27:52.475Z,8.83
2022-10-17T23:30:19.419Z,8.84
2022-10-17T23:32:46.402Z,8.82
2022-10-17T23:35:13.567Z,8.79
2022-10-17T23:37:40.484Z,8.75
2022-10-17T23:40:08.005Z,8.70
2022-10-17T23:42:34.912Z,8.66
2022-10-17T23:45:01.824Z,8.61
2022-10-17T23:47:29.056Z,8.62
2022-10-17T23:49:56.985Z,8.66
2022-10-17T23:52:24.376Z,8.66
2022-10-17T23:54:51.249Z,8.64
2022-10-17T23:57:18.334Z,8.59
2022-10-17T23:59:45.256Z,8.54
